CYCS

Chesterfield Inlet Airport

Chesterfield Inlet, Canada
METAR CYCS 222200Z 36014KT 15SM DRSN BKN120 M07/M08 A3020 RMK AC7 -3.8/-7.1/0.6/3 MUCH LOOSE LAST STFD OBS NXT 231200Z SLP229
Observed Flight Rules
Oct-22 @ 22:00 UTC (12 hours ago) Visual Flight Rules
Wind Visibility Clouds Conditions
360° at 14 knots 15 miles
  • Broken at 12,000' AGL
  • Low drifting
  • Snow
Temperatures Readings
Current -7°C / 19°F
Dewpoint -8°C / 18°F
Humidity 93%
Altimeter 30.2" Hg
Pressure 1022.9 hPa
Elevation 11
METAR CYCS 222200Z 36014KT 15SM DRSN BKN120 M07/M08 A3020 RMK AC7 -3.8/-7.1/0.6/3 MUCH LOOSE LAST STFD OBS NXT 231200Z SLP229
Observed Flight Rules
Oct-22 @ 22:00 UTC
(12 hours ago)
VFR
Wind Visibility
360° at 14 knots 15 miles
Clouds
  • Broken at 12,000' AGL
Conditions
  • Low drifting
  • Snow
Temperature Dewpoint
-7°C / 19°F -8°C / 18°F
Humidity Altimeter Pressure
93% 30.2" Hg 1022.9 hPa